sensor_id;sensor_type;location;lat;lon;timestamp;P1;durP1;ratioP1;P2;durP2;ratioP2
6495;SDS011;3281;47.658;9.166;2023-12-07T00:00:15;14.40;;;9.93;;
6495;SDS011;3281;47.658;9.166;2023-12-07T00:02:42;16.10;;;10.20;;
6495;SDS011;3281;47.658;9.166;2023-12-07T00:05:11;11.67;;;8.53;;
6495;SDS011;3281;47.658;9.166;2023-12-07T00:07:37;12.53;;;9.23;;
6495;SDS011;3281;47.658;9.166;2023-12-07T00:10:04;14.43;;;9.30;;
6495;SDS011;3281;47.658;9.166;2023-12-07T00:12:32;13.70;;;9.23;;
6495;SDS011;3281;47.658;9.166;2023-12-07T00:14:58;13.63;;;9.37;;
6495;SDS011;3281;47.658;9.166;2023-12-07T00:17:25;14.57;;;8.90;;
6495;SDS011;3281;47.658;9.166;2023-12-07T00:19:52;13.63;;;9.87;;
6495;SDS011;3281;47.658;9.166;2023-12-07T00:22:20;15.90;;;9.67;;
6495;SDS011;3281;47.658;9.166;2023-12-07T00:24:47;13.70;;;9.60;;
6495;SDS011;3281;47.658;9.166;2023-12-07T00:27:13;15.70;;;10.70;;
6495;SDS011;3281;47.658;9.166;2023-12-07T00:29:40;13.10;;;9.73;;
6495;SDS011;3281;47.658;9.166;2023-12-07T00:32:07;15.17;;;10.13;;
6495;SDS011;3281;47.658;9.166;2023-12-07T00:34:33;14.70;;;10.50;;
6495;SDS011;3281;47.658;9.166;2023-12-07T00:37:00;15.50;;;10.63;;
6495;SDS011;3281;47.658;9.166;2023-12-07T00:39:29;15.17;;;10.40;;
6495;SDS011;3281;47.658;9.166;2023-12-07T00:41:56;15.37;;;10.73;;
6495;SDS011;3281;47.658;9.166;2023-12-07T00:44:22;17.53;;;10.00;;
6495;SDS011;3281;47.658;9.166;2023-12-07T00:46:49;12.63;;;9.27;;
6495;SDS011;3281;47.658;9.166;2023-12-07T00:49:16;14.63;;;9.83;;
6495;SDS011;3281;47.658;9.166;2023-12-07T00:51:43;16.03;;;9.47;;
6495;SDS011;3281;47.658;9.166;2023-12-07T00:54:09;13.70;;;8.87;;
6495;SDS011;3281;47.658;9.166;2023-12-07T00:56:37;12.53;;;9.53;;
6495;SDS011;3281;47.658;9.166;2023-12-07T00:59:04;13.97;;;9.63;;
6495;SDS011;3281;47.658;9.166;2023-12-07T01:01:32;15.57;;;10.00;;
6495;SDS011;3281;47.658;9.166;2023-12-07T01:03:58;15.37;;;10.53;;
6495;SDS011;3281;47.658;9.166;2023-12-07T01:06:25;16.33;;;10.57;;
6495;SDS011;3281;47.658;9.166;2023-12-07T01:08:52;16.60;;;10.87;;
6495;SDS011;3281;47.658;9.166;2023-12-07T01:11:18;20.13;;;9.67;;
6495;SDS011;3281;47.658;9.166;2023-12-07T01:13:46;16.27;;;10.27;;
6495;SDS011;3281;47.658;9.166;2023-12-07T01:16:13;15.03;;;10.30;;
6495;SDS011;3281;47.658;9.166;2023-12-07T01:18:40;17.23;;;10.70;;
6495;SDS011;3281;47.658;9.166;2023-12-07T01:21:06;19.50;;;10.47;;
6495;SDS011;3281;47.658;9.166;2023-12-07T01:23:33;16.27;;;11.13;;
6495;SDS011;3281;47.658;9.166;2023-12-07T01:26:00;17.67;;;10.57;;
6495;SDS011;3281;47.658;9.166;2023-12-07T01:28:27;15.40;;;9.97;;
6495;SDS011;3281;47.658;9.166;2023-12-07T01:30:55;15.77;;;10.80;;
6495;SDS011;3281;47.658;9.166;2023-12-07T01:33:22;16.93;;;11.07;;
6495;SDS011;3281;47.658;9.166;2023-12-07T01:35:48;15.07;;;10.87;;
6495;SDS011;3281;47.658;9.166;2023-12-07T01:38:15;15.20;;;9.60;;
6495;SDS011;3281;47.658;9.166;2023-12-07T01:40:42;14.10;;;9.63;;
6495;SDS011;3281;47.658;9.166;2023-12-07T01:43:09;17.20;;;10.13;;
6495;SDS011;3281;47.658;9.166;2023-12-07T01:45:35;15.20;;;10.07;;
6495;SDS011;3281;47.658;9.166;2023-12-07T01:48:03;19.00;;;10.63;;
6495;SDS011;3281;47.658;9.166;2023-12-07T01:50:31;16.83;;;10.70;;
6495;SDS011;3281;47.658;9.166;2023-12-07T01:53:00;15.20;;;11.30;;
6495;SDS011;3281;47.658;9.166;2023-12-07T01:55:28;13.50;;;9.93;;
6495;SDS011;3281;47.658;9.166;2023-12-07T01:57:56;16.17;;;11.00;;
6495;SDS011;3281;47.658;9.166;2023-12-07T02:00:23;13.90;;;9.90;;
6495;SDS011;3281;47.658;9.166;2023-12-07T02:02:50;14.93;;;10.17;;
6495;SDS011;3281;47.658;9.166;2023-12-07T02:05:19;14.30;;;10.00;;
6495;SDS011;3281;47.658;9.166;2023-12-07T02:07:46;17.50;;;11.27;;
6495;SDS011;3281;47.658;9.166;2023-12-07T02:10:13;13.73;;;10.03;;
6495;SDS011;3281;47.658;9.166;2023-12-07T02:12:40;13.87;;;9.87;;
6495;SDS011;3281;47.658;9.166;2023-12-07T02:15:07;14.57;;;10.00;;
6495;SDS011;3281;47.658;9.166;2023-12-07T02:17:38;15.87;;;10.77;;
6495;SDS011;3281;47.658;9.166;2023-12-07T02:20:10;17.67;;;11.83;;
6495;SDS011;3281;47.658;9.166;2023-12-07T02:22:46;18.00;;;11.27;;
6495;SDS011;3281;47.658;9.166;2023-12-07T02:25:18;15.13;;;10.23;;
6495;SDS011;3281;47.658;9.166;2023-12-07T02:27:49;16.37;;;11.00;;
6495;SDS011;3281;47.658;9.166;2023-12-07T02:30:15;17.90;;;11.07;;
6495;SDS011;3281;47.658;9.166;2023-12-07T02:32:43;18.77;;;11.90;;
6495;SDS011;3281;47.658;9.166;2023-12-07T02:35:11;17.30;;;11.43;;
6495;SDS011;3281;47.658;9.166;2023-12-07T02:37:40;22.27;;;13.57;;
6495;SDS011;3281;47.658;9.166;2023-12-07T02:40:09;21.33;;;13.80;;
6495;SDS011;3281;47.658;9.166;2023-12-07T02:42:40;23.17;;;13.70;;
6495;SDS011;3281;47.658;9.166;2023-12-07T02:45:09;21.70;;;14.30;;
6495;SDS011;3281;47.658;9.166;2023-12-07T02:47:37;20.30;;;13.30;;
6495;SDS011;3281;47.658;9.166;2023-12-07T02:50:04;27.10;;;15.03;;
6495;SDS011;3281;47.658;9.166;2023-12-07T02:52:32;25.77;;;15.23;;
6495;SDS011;3281;47.658;9.166;2023-12-07T02:54:59;21.97;;;14.93;;
6495;SDS011;3281;47.658;9.166;2023-12-07T02:57:26;21.07;;;13.70;;
6495;SDS011;3281;47.658;9.166;2023-12-07T02:59:53;21.93;;;13.33;;
6495;SDS011;3281;47.658;9.166;2023-12-07T03:02:21;25.03;;;13.60;;
6495;SDS011;3281;47.658;9.166;2023-12-07T03:04:47;23.77;;;14.63;;
6495;SDS011;3281;47.658;9.166;2023-12-07T03:07:14;20.13;;;13.27;;
6495;SDS011;3281;47.658;9.166;2023-12-07T03:09:41;18.43;;;11.20;;
6495;SDS011;3281;47.658;9.166;2023-12-07T03:12:07;14.93;;;10.23;;
6495;SDS011;3281;47.658;9.166;2023-12-07T03:14:34;14.67;;;10.40;;
6495;SDS011;3281;47.658;9.166;2023-12-07T03:17:01;15.73;;;10.17;;
6495;SDS011;3281;47.658;9.166;2023-12-07T03:19:29;14.87;;;9.53;;
6495;SDS011;3281;47.658;9.166;2023-12-07T03:21:55;15.27;;;9.50;;
6495;SDS011;3281;47.658;9.166;2023-12-07T03:24:22;14.43;;;9.80;;
6495;SDS011;3281;47.658;9.166;2023-12-07T03:26:49;18.53;;;10.90;;
6495;SDS011;3281;47.658;9.166;2023-12-07T03:29:16;12.77;;;9.50;;
6495;SDS011;3281;47.658;9.166;2023-12-07T03:31:42;10.63;;;7.93;;
6495;SDS011;3281;47.658;9.166;2023-12-07T03:34:09;14.07;;;9.17;;
6495;SDS011;3281;47.658;9.166;2023-12-07T03:36:39;17.10;;;9.20;;
6495;SDS011;3281;47.658;9.166;2023-12-07T03:39:05;15.43;;;9.77;;
6495;SDS011;3281;47.658;9.166;2023-12-07T03:41:32;15.87;;;9.27;;
6495;SDS011;3281;47.658;9.166;2023-12-07T03:43:59;14.93;;;9.57;;
6495;SDS011;3281;47.658;9.166;2023-12-07T03:46:26;13.13;;;8.70;;
6495;SDS011;3281;47.658;9.166;2023-12-07T03:48:53;13.43;;;8.90;;
6495;SDS011;3281;47.658;9.166;2023-12-07T03:51:19;14.27;;;9.57;;
6495;SDS011;3281;47.658;9.166;2023-12-07T03:53:48;17.90;;;9.50;;
6495;SDS011;3281;47.658;9.166;2023-12-07T03:56:22;15.70;;;10.07;;
6495;SDS011;3281;47.658;9.166;2023-12-07T03:58:49;17.07;;;11.27;;
6495;SDS011;3281;47.658;9.166;2023-12-07T04:01:15;16.50;;;10.83;;
6495;SDS011;3281;47.658;9.166;2023-12-07T04:03:42;14.87;;;10.47;;
6495;SDS011;3281;47.658;9.166;2023-12-07T04:06:09;15.90;;;9.80;;
6495;SDS011;3281;47.658;9.166;2023-12-07T04:08:36;13.90;;;9.20;;
6495;SDS011;3281;47.658;9.166;2023-12-07T04:11:04;18.50;;;9.97;;
6495;SDS011;3281;47.658;9.166;2023-12-07T04:13:31;19.33;;;11.40;;
6495;SDS011;3281;47.658;9.166;2023-12-07T04:15:57;13.80;;;9.23;;
6495;SDS011;3281;47.658;9.166;2023-12-07T04:18:24;15.03;;;10.13;;
6495;SDS011;3281;47.658;9.166;2023-12-07T04:20:51;14.63;;;10.00;;
6495;SDS011;3281;47.658;9.166;2023-12-07T04:23:17;15.90;;;11.10;;
6495;SDS011;3281;47.658;9.166;2023-12-07T04:25:44;17.20;;;11.40;;
6495;SDS011;3281;47.658;9.166;2023-12-07T04:28:12;19.00;;;10.90;;
6495;SDS011;3281;47.658;9.166;2023-12-07T04:30:39;16.00;;;10.83;;
6495;SDS011;3281;47.658;9.166;2023-12-07T04:33:06;18.63;;;12.43;;
6495;SDS011;3281;47.658;9.166;2023-12-07T04:35:34;20.77;;;12.77;;
6495;SDS011;3281;47.658;9.166;2023-12-07T04:38:00;24.23;;;12.33;;
6495;SDS011;3281;47.658;9.166;2023-12-07T04:40:27;20.40;;;12.43;;
6495;SDS011;3281;47.658;9.166;2023-12-07T04:42:54;22.63;;;13.47;;
6495;SDS011;3281;47.658;9.166;2023-12-07T04:45:22;19.40;;;12.37;;
6495;SDS011;3281;47.658;9.166;2023-12-07T04:47:49;21.50;;;11.17;;
6495;SDS011;3281;47.658;9.166;2023-12-07T04:50:15;19.03;;;11.23;;
6495;SDS011;3281;47.658;9.166;2023-12-07T04:52:42;18.77;;;11.70;;
6495;SDS011;3281;47.658;9.166;2023-12-07T04:55:09;18.03;;;11.90;;
6495;SDS011;3281;47.658;9.166;2023-12-07T04:57:36;19.60;;;11.53;;
6495;SDS011;3281;47.658;9.166;2023-12-07T05:00:03;19.20;;;12.27;;
6495;SDS011;3281;47.658;9.166;2023-12-07T05:02:35;18.23;;;11.87;;
6495;SDS011;3281;47.658;9.166;2023-12-07T05:05:02;18.27;;;10.93;;
6495;SDS011;3281;47.658;9.166;2023-12-07T05:07:30;18.70;;;11.73;;
6495;SDS011;3281;47.658;9.166;2023-12-07T05:09:56;22.07;;;12.43;;
6495;SDS011;3281;47.658;9.166;2023-12-07T05:12:23;22.93;;;12.70;;
6495;SDS011;3281;47.658;9.166;2023-12-07T05:14:50;18.47;;;11.70;;
6495;SDS011;3281;47.658;9.166;2023-12-07T05:17:16;19.03;;;11.80;;
6495;SDS011;3281;47.658;9.166;2023-12-07T05:19:45;18.90;;;12.00;;
6495;SDS011;3281;47.658;9.166;2023-12-07T05:22:11;19.50;;;13.07;;
6495;SDS011;3281;47.658;9.166;2023-12-07T05:24:39;19.93;;;13.07;;
6495;SDS011;3281;47.658;9.166;2023-12-07T05:27:06;21.47;;;13.43;;
6495;SDS011;3281;47.658;9.166;2023-12-07T05:29:33;19.67;;;12.60;;
6495;SDS011;3281;47.658;9.166;2023-12-07T05:31:59;20.57;;;13.60;;
6495;SDS011;3281;47.658;9.166;2023-12-07T05:34:26;24.10;;;14.13;;
6495;SDS011;3281;47.658;9.166;2023-12-07T05:36:54;18.33;;;11.80;;
6495;SDS011;3281;47.658;9.166;2023-12-07T05:39:20;23.53;;;13.87;;
6495;SDS011;3281;47.658;9.166;2023-12-07T05:41:47;22.17;;;13.63;;
6495;SDS011;3281;47.658;9.166;2023-12-07T05:44:13;22.80;;;14.17;;
6495;SDS011;3281;47.658;9.166;2023-12-07T05:46:46;26.23;;;14.93;;
6495;SDS011;3281;47.658;9.166;2023-12-07T05:49:13;26.60;;;15.23;;
6495;SDS011;3281;47.658;9.166;2023-12-07T05:51:39;27.50;;;15.73;;
6495;SDS011;3281;47.658;9.166;2023-12-07T05:54:07;24.37;;;14.87;;
6495;SDS011;3281;47.658;9.166;2023-12-07T05:56:34;23.97;;;16.03;;
6495;SDS011;3281;47.658;9.166;2023-12-07T05:59:01;27.10;;;15.60;;
6495;SDS011;3281;47.658;9.166;2023-12-07T06:01:27;21.73;;;13.33;;
6495;SDS011;3281;47.658;9.166;2023-12-07T06:03:54;25.53;;;14.67;;
6495;SDS011;3281;47.658;9.166;2023-12-07T06:06:21;26.77;;;15.07;;
6495;SDS011;3281;47.658;9.166;2023-12-07T06:08:47;23.10;;;13.87;;
6495;SDS011;3281;47.658;9.166;2023-12-07T06:11:15;23.03;;;13.87;;
6495;SDS011;3281;47.658;9.166;2023-12-07T06:13:42;23.97;;;13.93;;
6495;SDS011;3281;47.658;9.166;2023-12-07T06:16:11;21.90;;;13.10;;
6495;SDS011;3281;47.658;9.166;2023-12-07T06:18:39;23.30;;;13.13;;
6495;SDS011;3281;47.658;9.166;2023-12-07T06:21:06;22.07;;;13.57;;
6495;SDS011;3281;47.658;9.166;2023-12-07T06:23:33;23.87;;;12.70;;
6495;SDS011;3281;47.658;9.166;2023-12-07T06:26:00;24.67;;;12.73;;
6495;SDS011;3281;47.658;9.166;2023-12-07T06:28:28;23.93;;;13.67;;
6495;SDS011;3281;47.658;9.166;2023-12-07T06:30:57;21.23;;;12.73;;
6495;SDS011;3281;47.658;9.166;2023-12-07T06:33:24;20.63;;;11.90;;
6495;SDS011;3281;47.658;9.166;2023-12-07T06:35:50;18.67;;;11.70;;
6495;SDS011;3281;47.658;9.166;2023-12-07T06:38:17;17.60;;;11.30;;
6495;SDS011;3281;47.658;9.166;2023-12-07T06:40:45;19.57;;;11.70;;
6495;SDS011;3281;47.658;9.166;2023-12-07T06:43:12;21.30;;;12.00;;
6495;SDS011;3281;47.658;9.166;2023-12-07T06:45:40;20.53;;;12.50;;
6495;SDS011;3281;47.658;9.166;2023-12-07T06:48:07;20.30;;;11.53;;
6495;SDS011;3281;47.658;9.166;2023-12-07T06:50:34;19.40;;;11.83;;
6495;SDS011;3281;47.658;9.166;2023-12-07T06:53:00;19.43;;;11.50;;
6495;SDS011;3281;47.658;9.166;2023-12-07T06:55:27;23.23;;;13.83;;
6495;SDS011;3281;47.658;9.166;2023-12-07T06:57:54;24.23;;;13.10;;
6495;SDS011;3281;47.658;9.166;2023-12-07T07:00:21;25.53;;;13.10;;
6495;SDS011;3281;47.658;9.166;2023-12-07T07:02:50;26.37;;;12.83;;
6495;SDS011;3281;47.658;9.166;2023-12-07T07:05:17;26.67;;;15.77;;
6495;SDS011;3281;47.658;9.166;2023-12-07T07:07:44;24.40;;;13.53;;
6495;SDS011;3281;47.658;9.166;2023-12-07T07:10:11;22.27;;;12.97;;
6495;SDS011;3281;47.658;9.166;2023-12-07T07:12:38;25.23;;;12.53;;
6495;SDS011;3281;47.658;9.166;2023-12-07T07:15:06;24.87;;;13.77;;
6495;SDS011;3281;47.658;9.166;2023-12-07T07:17:33;22.90;;;13.80;;
6495;SDS011;3281;47.658;9.166;2023-12-07T07:20:01;23.97;;;13.43;;
6495;SDS011;3281;47.658;9.166;2023-12-07T07:22:28;26.73;;;14.50;;
6495;SDS011;3281;47.658;9.166;2023-12-07T07:24:55;22.73;;;13.70;;
6495;SDS011;3281;47.658;9.166;2023-12-07T07:27:22;24.87;;;13.50;;
6495;SDS011;3281;47.658;9.166;2023-12-07T07:29:49;24.57;;;14.70;;
6495;SDS011;3281;47.658;9.166;2023-12-07T07:32:16;22.43;;;14.10;;
6495;SDS011;3281;47.658;9.166;2023-12-07T07:34:42;21.50;;;12.77;;
6495;SDS011;3281;47.658;9.166;2023-12-07T07:37:10;22.43;;;13.80;;
6495;SDS011;3281;47.658;9.166;2023-12-07T07:39:37;23.20;;;14.17;;
6495;SDS011;3281;47.658;9.166;2023-12-07T07:42:04;27.57;;;15.27;;
6495;SDS011;3281;47.658;9.166;2023-12-07T07:44:31;26.93;;;13.93;;
6495;SDS011;3281;47.658;9.166;2023-12-07T07:46:58;28.10;;;14.30;;
6495;SDS011;3281;47.658;9.166;2023-12-07T07:49:25;23.47;;;14.53;;
6495;SDS011;3281;47.658;9.166;2023-12-07T07:51:51;22.73;;;14.13;;
6495;SDS011;3281;47.658;9.166;2023-12-07T07:54:19;27.57;;;14.27;;
6495;SDS011;3281;47.658;9.166;2023-12-07T07:56:46;25.67;;;15.00;;
6495;SDS011;3281;47.658;9.166;2023-12-07T07:59:13;25.20;;;14.97;;
6495;SDS011;3281;47.658;9.166;2023-12-07T08:01:41;26.47;;;15.13;;
6495;SDS011;3281;47.658;9.166;2023-12-07T08:04:07;25.50;;;14.63;;
6495;SDS011;3281;47.658;9.166;2023-12-07T08:06:35;28.03;;;15.37;;
6495;SDS011;3281;47.658;9.166;2023-12-07T08:09:02;22.53;;;14.40;;
6495;SDS011;3281;47.658;9.166;2023-12-07T08:11:30;27.77;;;15.53;;
6495;SDS011;3281;47.658;9.166;2023-12-07T08:13:58;25.03;;;14.60;;
6495;SDS011;3281;47.658;9.166;2023-12-07T08:16:25;24.57;;;15.53;;
6495;SDS011;3281;47.658;9.166;2023-12-07T08:18:52;28.30;;;15.20;;
6495;SDS011;3281;47.658;9.166;2023-12-07T08:21:20;23.93;;;14.70;;
6495;SDS011;3281;47.658;9.166;2023-12-07T08:23:46;27.33;;;14.87;;
6495;SDS011;3281;47.658;9.166;2023-12-07T08:26:13;28.60;;;14.83;;
6495;SDS011;3281;47.658;9.166;2023-12-07T08:28:42;31.27;;;16.10;;
6495;SDS011;3281;47.658;9.166;2023-12-07T08:31:09;27.13;;;14.50;;
6495;SDS011;3281;47.658;9.166;2023-12-07T08:33:36;23.37;;;14.13;;
6495;SDS011;3281;47.658;9.166;2023-12-07T08:36:04;22.23;;;13.00;;
6495;SDS011;3281;47.658;9.166;2023-12-07T08:38:33;21.47;;;12.67;;
6495;SDS011;3281;47.658;9.166;2023-12-07T08:41:00;21.57;;;12.53;;
6495;SDS011;3281;47.658;9.166;2023-12-07T08:43:27;19.67;;;10.63;;
6495;SDS011;3281;47.658;9.166;2023-12-07T08:45:56;19.47;;;12.03;;
6495;SDS011;3281;47.658;9.166;2023-12-07T08:48:23;19.80;;;12.00;;
6495;SDS011;3281;47.658;9.166;2023-12-07T08:50:50;20.00;;;11.03;;
6495;SDS011;3281;47.658;9.166;2023-12-07T08:53:17;18.30;;;11.23;;
6495;SDS011;3281;47.658;9.166;2023-12-07T08:55:44;18.13;;;11.80;;
6495;SDS011;3281;47.658;9.166;2023-12-07T08:58:10;17.93;;;11.37;;
6495;SDS011;3281;47.658;9.166;2023-12-07T09:00:37;18.17;;;11.93;;
6495;SDS011;3281;47.658;9.166;2023-12-07T09:03:05;16.93;;;11.60;;
6495;SDS011;3281;47.658;9.166;2023-12-07T09:05:32;18.57;;;12.73;;
6495;SDS011;3281;47.658;9.166;2023-12-07T09:07:59;19.33;;;11.93;;
6495;SDS011;3281;47.658;9.166;2023-12-07T09:10:25;19.00;;;12.07;;
6495;SDS011;3281;47.658;9.166;2023-12-07T09:12:53;19.80;;;12.43;;
6495;SDS011;3281;47.658;9.166;2023-12-07T09:15:19;16.23;;;11.30;;
6495;SDS011;3281;47.658;9.166;2023-12-07T09:17:47;16.57;;;10.40;;
6495;SDS011;3281;47.658;9.166;2023-12-07T09:20:16;17.07;;;10.30;;
6495;SDS011;3281;47.658;9.166;2023-12-07T09:22:42;17.47;;;11.40;;
6495;SDS011;3281;47.658;9.166;2023-12-07T09:25:10;16.30;;;11.87;;
6495;SDS011;3281;47.658;9.166;2023-12-07T09:27:37;17.87;;;10.87;;
6495;SDS011;3281;47.658;9.166;2023-12-07T09:30:04;15.63;;;9.50;;
6495;SDS011;3281;47.658;9.166;2023-12-07T09:32:32;18.80;;;11.53;;
6495;SDS011;3281;47.658;9.166;2023-12-07T09:35:03;16.63;;;11.73;;
6495;SDS011;3281;47.658;9.166;2023-12-07T09:37:32;16.43;;;10.30;;
6495;SDS011;3281;47.658;9.166;2023-12-07T09:39:59;14.40;;;9.53;;
6495;SDS011;3281;47.658;9.166;2023-12-07T09:42:26;16.13;;;9.73;;
6495;SDS011;3281;47.658;9.166;2023-12-07T09:44:53;15.37;;;9.57;;
6495;SDS011;3281;47.658;9.166;2023-12-07T09:47:20;12.83;;;8.83;;
6495;SDS011;3281;47.658;9.166;2023-12-07T09:49:47;13.00;;;8.40;;
6495;SDS011;3281;47.658;9.166;2023-12-07T09:52:14;14.77;;;8.83;;
6495;SDS011;3281;47.658;9.166;2023-12-07T09:54:43;18.93;;;10.10;;
6495;SDS011;3281;47.658;9.166;2023-12-07T09:57:11;15.93;;;8.83;;
6495;SDS011;3281;47.658;9.166;2023-12-07T09:59:39;12.37;;;8.33;;
6495;SDS011;3281;47.658;9.166;2023-12-07T10:02:06;17.07;;;9.77;;
6495;SDS011;3281;47.658;9.166;2023-12-07T10:04:33;13.13;;;8.60;;
6495;SDS011;3281;47.658;9.166;2023-12-07T10:07:01;15.17;;;8.20;;
6495;SDS011;3281;47.658;9.166;2023-12-07T10:09:28;14.80;;;8.27;;
6495;SDS011;3281;47.658;9.166;2023-12-07T10:12:02;13.57;;;8.77;;
6495;SDS011;3281;47.658;9.166;2023-12-07T10:14:30;16.57;;;8.90;;
6495;SDS011;3281;47.658;9.166;2023-12-07T10:16:56;11.93;;;8.30;;
6495;SDS011;3281;47.658;9.166;2023-12-07T10:19:23;12.70;;;8.20;;
6495;SDS011;3281;47.658;9.166;2023-12-07T10:21:52;12.03;;;8.10;;
6495;SDS011;3281;47.658;9.166;2023-12-07T10:24:20;11.43;;;7.77;;
6495;SDS011;3281;47.658;9.166;2023-12-07T10:26:48;11.50;;;7.23;;
6495;SDS011;3281;47.658;9.166;2023-12-07T10:29:18;13.40;;;8.40;;
6495;SDS011;3281;47.658;9.166;2023-12-07T10:31:45;11.97;;;8.97;;
6495;SDS011;3281;47.658;9.166;2023-12-07T10:34:12;10.97;;;7.83;;
6495;SDS011;3281;47.658;9.166;2023-12-07T10:36:44;11.90;;;7.87;;
6495;SDS011;3281;47.658;9.166;2023-12-07T10:39:12;15.10;;;9.97;;
6495;SDS011;3281;47.658;9.166;2023-12-07T10:41:38;12.30;;;8.83;;
6495;SDS011;3281;47.658;9.166;2023-12-07T10:44:09;11.67;;;7.67;;
6495;SDS011;3281;47.658;9.166;2023-12-07T10:46:41;12.73;;;8.13;;
6495;SDS011;3281;47.658;9.166;2023-12-07T10:49:10;16.70;;;8.13;;
6495;SDS011;3281;47.658;9.166;2023-12-07T10:51:44;11.13;;;7.57;;
6495;SDS011;3281;47.658;9.166;2023-12-07T10:54:15;14.40;;;9.03;;
6495;SDS011;3281;47.658;9.166;2023-12-07T10:56:45;14.57;;;8.77;;
6495;SDS011;3281;47.658;9.166;2023-12-07T10:59:12;10.33;;;7.67;;
6495;SDS011;3281;47.658;9.166;2023-12-07T11:01:41;10.97;;;7.97;;
6495;SDS011;3281;47.658;9.166;2023-12-07T11:04:10;12.67;;;8.00;;
6495;SDS011;3281;47.658;9.166;2023-12-07T11:06:37;13.93;;;9.63;;
6495;SDS011;3281;47.658;9.166;2023-12-07T11:09:06;12.43;;;8.23;;
6495;SDS011;3281;47.658;9.166;2023-12-07T11:11:42;11.50;;;6.80;;
6495;SDS011;3281;47.658;9.166;2023-12-07T11:14:13;15.70;;;7.87;;
6495;SDS011;3281;47.658;9.166;2023-12-07T11:16:45;11.57;;;8.00;;
6495;SDS011;3281;47.658;9.166;2023-12-07T11:22:11;11.87;;;7.90;;
6495;SDS011;3281;47.658;9.166;2023-12-07T11:24:44;9.40;;;7.10;;
6495;SDS011;3281;47.658;9.166;2023-12-07T11:27:18;11.73;;;7.43;;
6495;SDS011;3281;47.658;9.166;2023-12-07T11:29:45;9.30;;;7.10;;
6495;SDS011;3281;47.658;9.166;2023-12-07T11:32:14;9.60;;;6.53;;
6495;SDS011;3281;47.658;9.166;2023-12-07T11:34:41;12.07;;;7.13;;
6495;SDS011;3281;47.658;9.166;2023-12-07T11:37:09;8.80;;;6.17;;
6495;SDS011;3281;47.658;9.166;2023-12-07T11:39:37;11.70;;;7.13;;
6495;SDS011;3281;47.658;9.166;2023-12-07T11:42:06;11.07;;;6.33;;
6495;SDS011;3281;47.658;9.166;2023-12-07T11:44:37;10.60;;;7.10;;
6495;SDS011;3281;47.658;9.166;2023-12-07T11:47:04;9.60;;;6.47;;
6495;SDS011;3281;47.658;9.166;2023-12-07T11:49:33;11.27;;;6.80;;
6495;SDS011;3281;47.658;9.166;2023-12-07T11:52:00;6.83;;;5.37;;
6495;SDS011;3281;47.658;9.166;2023-12-07T11:54:37;9.57;;;6.63;;
6495;SDS011;3281;47.658;9.166;2023-12-07T11:57:04;7.97;;;5.87;;
6495;SDS011;3281;47.658;9.166;2023-12-07T11:59:31;8.03;;;5.53;;
6495;SDS011;3281;47.658;9.166;2023-12-07T12:01:58;9.77;;;6.77;;
6495;SDS011;3281;47.658;9.166;2023-12-07T12:04:25;6.23;;;4.43;;
6495;SDS011;3281;47.658;9.166;2023-12-07T12:06:55;8.25;;;5.55;;
6495;SDS011;3281;47.658;9.166;2023-12-07T12:09:23;7.75;;;5.43;;
6495;SDS011;3281;47.658;9.166;2023-12-07T12:11:50;5.80;;;4.25;;
6495;SDS011;3281;47.658;9.166;2023-12-07T12:14:17;6.82;;;4.57;;
6495;SDS011;3281;47.658;9.166;2023-12-07T12:16:44;6.13;;;4.45;;
6495;SDS011;3281;47.658;9.166;2023-12-07T12:19:11;8.65;;;5.80;;
6495;SDS011;3281;47.658;9.166;2023-12-07T12:21:39;6.80;;;4.68;;
6495;SDS011;3281;47.658;9.166;2023-12-07T12:24:10;7.23;;;4.80;;
6495;SDS011;3281;47.658;9.166;2023-12-07T12:26:38;7.17;;;5.33;;
6495;SDS011;3281;47.658;9.166;2023-12-07T12:29:07;7.33;;;5.30;;
6495;SDS011;3281;47.658;9.166;2023-12-07T12:31:34;6.87;;;4.80;;
6495;SDS011;3281;47.658;9.166;2023-12-07T12:34:01;7.30;;;5.23;;
6495;SDS011;3281;47.658;9.166;2023-12-07T12:36:28;7.37;;;5.30;;
6495;SDS011;3281;47.658;9.166;2023-12-07T12:38:55;7.00;;;4.87;;
6495;SDS011;3281;47.658;9.166;2023-12-07T12:41:23;9.07;;;5.03;;
6495;SDS011;3281;47.658;9.166;2023-12-07T12:43:51;8.40;;;4.50;;
6495;SDS011;3281;47.658;9.166;2023-12-07T12:46:18;6.93;;;4.50;;
6495;SDS011;3281;47.658;9.166;2023-12-07T12:48:54;8.00;;;4.97;;
6495;SDS011;3281;47.658;9.166;2023-12-07T12:51:23;8.85;;;4.70;;
6495;SDS011;3281;47.658;9.166;2023-12-07T12:53:50;9.07;;;3.67;;
6495;SDS011;3281;47.658;9.166;2023-12-07T12:56:18;7.93;;;3.90;;
6495;SDS011;3281;47.658;9.166;2023-12-07T12:58:47;9.55;;;3.83;;
6495;SDS011;3281;47.658;9.166;2023-12-07T13:01:15;5.28;;;3.92;;
6495;SDS011;3281;47.658;9.166;2023-12-07T13:03:42;5.35;;;4.18;;
6495;SDS011;3281;47.658;9.166;2023-12-07T13:06:10;5.40;;;4.05;;
6495;SDS011;3281;47.658;9.166;2023-12-07T13:08:37;8.07;;;4.88;;
6495;SDS011;3281;47.658;9.166;2023-12-07T13:11:04;6.25;;;4.30;;
6495;SDS011;3281;47.658;9.166;2023-12-07T13:13:30;5.65;;;4.22;;
6495;SDS011;3281;47.658;9.166;2023-12-07T13:15:58;6.57;;;4.72;;
6495;SDS011;3281;47.658;9.166;2023-12-07T13:18:25;5.93;;;4.25;;
6495;SDS011;3281;47.658;9.166;2023-12-07T13:20:52;7.28;;;4.38;;
6495;SDS011;3281;47.658;9.166;2023-12-07T13:23:18;8.10;;;5.05;;
6495;SDS011;3281;47.658;9.166;2023-12-07T13:25:45;10.85;;;5.00;;
6495;SDS011;3281;47.658;9.166;2023-12-07T13:28:12;7.97;;;4.72;;
6495;SDS011;3281;47.658;9.166;2023-12-07T13:30:39;6.88;;;4.82;;
6495;SDS011;3281;47.658;9.166;2023-12-07T13:33:07;7.43;;;4.78;;
6495;SDS011;3281;47.658;9.166;2023-12-07T13:35:34;5.07;;;3.77;;
6495;SDS011;3281;47.658;9.166;2023-12-07T13:38:01;10.10;;;4.53;;
6495;SDS011;3281;47.658;9.166;2023-12-07T13:40:27;6.20;;;4.57;;
6495;SDS011;3281;47.658;9.166;2023-12-07T13:42:54;7.30;;;4.97;;
6495;SDS011;3281;47.658;9.166;2023-12-07T13:45:21;11.10;;;5.03;;
6495;SDS011;3281;47.658;9.166;2023-12-07T13:47:47;8.00;;;5.13;;
6495;SDS011;3281;47.658;9.166;2023-12-07T13:50:15;8.37;;;5.60;;
6495;SDS011;3281;47.658;9.166;2023-12-07T13:52:42;7.53;;;4.80;;
6495;SDS011;3281;47.658;9.166;2023-12-07T13:55:09;8.40;;;4.20;;
6495;SDS011;3281;47.658;9.166;2023-12-07T13:57:35;7.07;;;5.20;;
6495;SDS011;3281;47.658;9.166;2023-12-07T14:00:02;6.37;;;4.90;;
6495;SDS011;3281;47.658;9.166;2023-12-07T14:02:29;10.03;;;5.20;;
6495;SDS011;3281;47.658;9.166;2023-12-07T14:04:56;9.27;;;5.00;;
6495;SDS011;3281;47.658;9.166;2023-12-07T14:07:24;7.47;;;5.37;;
6495;SDS011;3281;47.658;9.166;2023-12-07T14:09:51;9.00;;;5.03;;
6495;SDS011;3281;47.658;9.166;2023-12-07T14:12:18;9.43;;;6.00;;
6495;SDS011;3281;47.658;9.166;2023-12-07T14:14:46;7.97;;;6.03;;
6495;SDS011;3281;47.658;9.166;2023-12-07T14:17:13;9.13;;;6.20;;
6495;SDS011;3281;47.658;9.166;2023-12-07T14:19:41;7.13;;;5.43;;
6495;SDS011;3281;47.658;9.166;2023-12-07T14:22:08;9.77;;;6.40;;
6495;SDS011;3281;47.658;9.166;2023-12-07T14:24:36;10.07;;;6.83;;
6495;SDS011;3281;47.658;9.166;2023-12-07T14:27:03;13.83;;;6.70;;
6495;SDS011;3281;47.658;9.166;2023-12-07T14:29:30;10.57;;;5.83;;
6495;SDS011;3281;47.658;9.166;2023-12-07T14:31:57;9.30;;;6.43;;
6495;SDS011;3281;47.658;9.166;2023-12-07T14:34:25;10.60;;;7.03;;
6495;SDS011;3281;47.658;9.166;2023-12-07T14:36:52;9.93;;;6.40;;
6495;SDS011;3281;47.658;9.166;2023-12-07T14:39:19;10.63;;;6.67;;
6495;SDS011;3281;47.658;9.166;2023-12-07T14:41:48;11.57;;;7.17;;
6495;SDS011;3281;47.658;9.166;2023-12-07T14:44:15;9.97;;;6.07;;
6495;SDS011;3281;47.658;9.166;2023-12-07T14:46:43;9.63;;;6.43;;
6495;SDS011;3281;47.658;9.166;2023-12-07T14:49:10;11.60;;;6.40;;
6495;SDS011;3281;47.658;9.166;2023-12-07T14:51:37;8.80;;;6.53;;
6495;SDS011;3281;47.658;9.166;2023-12-07T14:54:04;10.63;;;7.30;;
6495;SDS011;3281;47.658;9.166;2023-12-07T14:56:31;10.00;;;6.30;;
6495;SDS011;3281;47.658;9.166;2023-12-07T14:59:00;12.60;;;7.10;;
6495;SDS011;3281;47.658;9.166;2023-12-07T15:01:27;9.50;;;6.77;;